Summit, South Carolina
Current Conditions -  °F | °C
As of 3:32 AM on Monday 24 Nov 2014 (Local Time) from KCAE Reporting Station
Broken Clouds Broken Clouds  
Wind Chill: 66°   Ceiling: 2100
Heat Index: 66°   Visibility: 10mi
Dew Point: 61°   Wind: 9mph
Humidity: 84%   Direction: 240°WSW
Pressure: 29.79"   Gusts: NA
Location:  33.8822°N, 81.433°W
Report Text: KCAE 240832Z 24008KT 10SM BKN021 19/16 A2979 RMK AO2 T01890161
Loading
Personal Weather Stations






























Interactive Weather Map New forecast layout! Learn more

10-Day Weather Forecast

Advertisements
Track Severe Weather on mobile